Terminal Aerodrome Forecast
Issued by NWS

Home | Current Version | Previous Version | Text Only | Print | Product List | Glossary On
Versions: 1 2 3 4 5 6 7 8 9 10 11 12
464
FTUS42 TJSJ 191738
TAFIST
TAF
TIST 191738Z 1918/2018 14010KT P6SM FEW045 BKN070 BKN090
     FM192300 08005KT P6SM FEW025
     FM201500 11010KT P6SM VCSH FEW025 SCT050=

USA.gov is the U.S. government's official web portal to all federal, state and local government web resources and services.